sensor_id;sensor_type;location;lat;lon;timestamp;P1;durP1;ratioP1;P2;durP2;ratioP2
32946;SDS011;54465;51.230;22.504;2023-05-07T00:02:01;1.50;;;1.25;;
32946;SDS011;54465;51.230;22.504;2023-05-07T00:07:03;2.15;;;1.30;;
32946;SDS011;54465;51.230;22.504;2023-05-07T00:12:04;1.77;;;1.23;;
32946;SDS011;54465;51.230;22.504;2023-05-07T00:17:04;2.58;;;1.50;;
32946;SDS011;54465;51.230;22.504;2023-05-07T00:22:05;1.15;;;0.90;;
32946;SDS011;54465;51.230;22.504;2023-05-07T00:27:05;2.10;;;1.73;;
32946;SDS011;54465;51.230;22.504;2023-05-07T00:32:06;2.05;;;1.38;;
32946;SDS011;54465;51.230;22.504;2023-05-07T00:37:06;1.02;;;0.90;;
32946;SDS011;54465;51.230;22.504;2023-05-07T00:42:10;1.20;;;1.10;;
32946;SDS011;54465;51.230;22.504;2023-05-07T00:47:10;1.42;;;0.85;;
32946;SDS011;54465;51.230;22.504;2023-05-07T00:52:13;1.63;;;1.10;;
32946;SDS011;54465;51.230;22.504;2023-05-07T00:57:15;1.77;;;0.85;;
32946;SDS011;54465;51.230;22.504;2023-05-07T01:02:16;2.78;;;1.20;;
32946;SDS011;54465;51.230;22.504;2023-05-07T01:07:16;1.55;;;0.85;;
32946;SDS011;54465;51.230;22.504;2023-05-07T01:12:17;1.00;;;0.90;;
32946;SDS011;54465;51.230;22.504;2023-05-07T01:17:18;1.60;;;1.08;;
32946;SDS011;54465;51.230;22.504;2023-05-07T01:22:30;1.35;;;0.90;;
32946;SDS011;54465;51.230;22.504;2023-05-07T01:27:32;2.60;;;0.80;;
32946;SDS011;54465;51.230;22.504;2023-05-07T01:38:04;2.22;;;1.23;;
32946;SDS011;54465;51.230;22.504;2023-05-07T01:43:06;0.93;;;0.65;;
32946;SDS011;54465;51.230;22.504;2023-05-07T01:48:09;1.30;;;0.80;;
32946;SDS011;54465;51.230;22.504;2023-05-07T01:53:10;1.67;;;1.00;;
32946;SDS011;54465;51.230;22.504;2023-05-07T01:58:11;1.38;;;1.00;;
32946;SDS011;54465;51.230;22.504;2023-05-07T02:03:12;1.60;;;1.10;;
32946;SDS011;54465;51.230;22.504;2023-05-07T02:08:20;0.88;;;0.77;;
32946;SDS011;54465;51.230;22.504;2023-05-07T02:13:20;1.75;;;1.20;;
32946;SDS011;54465;51.230;22.504;2023-05-07T02:18:22;1.70;;;1.20;;
32946;SDS011;54465;51.230;22.504;2023-05-07T02:23:23;6.05;;;1.10;;
32946;SDS011;54465;51.230;22.504;2023-05-07T02:28:23;1.40;;;0.88;;
32946;SDS011;54465;51.230;22.504;2023-05-07T02:33:28;0.80;;;0.77;;
32946;SDS011;54465;51.230;22.504;2023-05-07T02:38:30;0.90;;;0.90;;
32946;SDS011;54465;51.230;22.504;2023-05-07T02:43:30;1.45;;;1.00;;
32946;SDS011;54465;51.230;22.504;2023-05-07T02:48:31;1.65;;;1.00;;
32946;SDS011;54465;51.230;22.504;2023-05-07T02:53:32;1.23;;;0.88;;
32946;SDS011;54465;51.230;22.504;2023-05-07T02:58:33;2.55;;;2.15;;
32946;SDS011;54465;51.230;22.504;2023-05-07T03:03:35;1.05;;;0.70;;
32946;SDS011;54465;51.230;22.504;2023-05-07T03:08:36;1.40;;;0.95;;
32946;SDS011;54465;51.230;22.504;2023-05-07T03:13:37;0.95;;;0.85;;
32946;SDS011;54465;51.230;22.504;2023-05-07T03:18:37;1.45;;;1.00;;
32946;SDS011;54465;51.230;22.504;2023-05-07T03:23:38;1.25;;;0.80;;
32946;SDS011;54465;51.230;22.504;2023-05-07T03:28:38;1.73;;;0.95;;
32946;SDS011;54465;51.230;22.504;2023-05-07T03:33:56;1.33;;;0.90;;
32946;SDS011;54465;51.230;22.504;2023-05-07T03:38:58;1.00;;;0.85;;
32946;SDS011;54465;51.230;22.504;2023-05-07T03:44:03;1.90;;;0.88;;
32946;SDS011;54465;51.230;22.504;2023-05-07T03:49:04;0.77;;;0.77;;
32946;SDS011;54465;51.230;22.504;2023-05-07T03:54:05;1.02;;;0.88;;
32946;SDS011;54465;51.230;22.504;2023-05-07T03:59:07;1.13;;;0.70;;
32946;SDS011;54465;51.230;22.504;2023-05-07T04:04:08;2.35;;;1.10;;
32946;SDS011;54465;51.230;22.504;2023-05-07T04:09:10;1.88;;;0.77;;
32946;SDS011;54465;51.230;22.504;2023-05-07T04:14:12;1.45;;;1.13;;
32946;SDS011;54465;51.230;22.504;2023-05-07T04:19:13;1.17;;;0.80;;
32946;SDS011;54465;51.230;22.504;2023-05-07T04:24:14;2.00;;;0.90;;
32946;SDS011;54465;51.230;22.504;2023-05-07T04:29:14;2.00;;;0.75;;
32946;SDS011;54465;51.230;22.504;2023-05-07T04:34:15;0.85;;;0.70;;
32946;SDS011;54465;51.230;22.504;2023-05-07T04:39:16;0.90;;;0.68;;
32946;SDS011;54465;51.230;22.504;2023-05-07T04:44:20;0.57;;;0.50;;
32946;SDS011;54465;51.230;22.504;2023-05-07T04:49:22;0.88;;;0.70;;
32946;SDS011;54465;51.230;22.504;2023-05-07T04:54:24;1.10;;;0.80;;
32946;SDS011;54465;51.230;22.504;2023-05-07T04:59:25;1.08;;;0.80;;
32946;SDS011;54465;51.230;22.504;2023-05-07T05:04:26;1.00;;;0.70;;
32946;SDS011;54465;51.230;22.504;2023-05-07T05:09:27;1.23;;;0.73;;
32946;SDS011;54465;51.230;22.504;2023-05-07T05:14:28;1.27;;;0.75;;
32946;SDS011;54465;51.230;22.504;2023-05-07T05:19:30;2.20;;;1.00;;
32946;SDS011;54465;51.230;22.504;2023-05-07T05:24:30;2.90;;;0.90;;
32946;SDS011;54465;51.230;22.504;2023-05-07T05:29:31;1.08;;;0.85;;
32946;SDS011;54465;51.230;22.504;2023-05-07T05:34:32;1.73;;;1.35;;
32946;SDS011;54465;51.230;22.504;2023-05-07T05:39:34;2.53;;;1.00;;
32946;SDS011;54465;51.230;22.504;2023-05-07T05:44:35;1.00;;;0.90;;
32946;SDS011;54465;51.230;22.504;2023-05-07T05:49:35;1.70;;;0.90;;
32946;SDS011;54465;51.230;22.504;2023-05-07T05:54:38;1.92;;;1.38;;
32946;SDS011;54465;51.230;22.504;2023-05-07T05:59:39;1.90;;;1.08;;
32946;SDS011;54465;51.230;22.504;2023-05-07T06:04:39;1.27;;;0.85;;
32946;SDS011;54465;51.230;22.504;2023-05-07T06:09:40;1.60;;;1.23;;
32946;SDS011;54465;51.230;22.504;2023-05-07T06:14:42;1.98;;;1.48;;
32946;SDS011;54465;51.230;22.504;2023-05-07T06:19:43;2.08;;;1.40;;
32946;SDS011;54465;51.230;22.504;2023-05-07T06:24:45;1.63;;;1.23;;
32946;SDS011;54465;51.230;22.504;2023-05-07T06:29:48;1.95;;;1.10;;
32946;SDS011;54465;51.230;22.504;2023-05-07T06:34:50;1.23;;;1.05;;
32946;SDS011;54465;51.230;22.504;2023-05-07T06:39:51;3.05;;;1.23;;
32946;SDS011;54465;51.230;22.504;2023-05-07T06:44:52;1.67;;;1.40;;
32946;SDS011;54465;51.230;22.504;2023-05-07T06:49:52;1.30;;;1.17;;
32946;SDS011;54465;51.230;22.504;2023-05-07T06:54:56;1.92;;;1.73;;
32946;SDS011;54465;51.230;22.504;2023-05-07T06:59:59;1.95;;;1.50;;
32946;SDS011;54465;51.230;22.504;2023-05-07T07:05:00;2.40;;;1.95;;
32946;SDS011;54465;51.230;22.504;2023-05-07T07:10:00;2.28;;;1.55;;
32946;SDS011;54465;51.230;22.504;2023-05-07T07:15:02;1.40;;;1.30;;
32946;SDS011;54465;51.230;22.504;2023-05-07T07:20:04;1.67;;;1.30;;
32946;SDS011;54465;51.230;22.504;2023-05-07T07:25:05;2.10;;;1.90;;
32946;SDS011;54465;51.230;22.504;2023-05-07T07:30:06;2.20;;;1.55;;
32946;SDS011;54465;51.230;22.504;2023-05-07T07:35:09;1.73;;;1.55;;
32946;SDS011;54465;51.230;22.504;2023-05-07T07:40:11;2.08;;;1.60;;
32946;SDS011;54465;51.230;22.504;2023-05-07T07:45:12;2.53;;;1.77;;
32946;SDS011;54465;51.230;22.504;2023-05-07T07:50:16;5.00;;;1.65;;
32946;SDS011;54465;51.230;22.504;2023-05-07T07:55:19;1.98;;;1.70;;
32946;SDS011;54465;51.230;22.504;2023-05-07T08:00:24;2.53;;;1.77;;
32946;SDS011;54465;51.230;22.504;2023-05-07T08:05:28;3.00;;;1.90;;
32946;SDS011;54465;51.230;22.504;2023-05-07T08:10:30;2.70;;;1.85;;
32946;SDS011;54465;51.230;22.504;2023-05-07T08:15:37;2.70;;;1.77;;
32946;SDS011;54465;51.230;22.504;2023-05-07T08:20:38;1.60;;;1.50;;
32946;SDS011;54465;51.230;22.504;2023-05-07T08:25:42;3.65;;;1.73;;
32946;SDS011;54465;51.230;22.504;2023-05-07T08:30:43;3.55;;;1.85;;
32946;SDS011;54465;51.230;22.504;2023-05-07T08:35:43;2.85;;;1.88;;
32946;SDS011;54465;51.230;22.504;2023-05-07T08:40:47;4.00;;;1.70;;
32946;SDS011;54465;51.230;22.504;2023-05-07T08:45:53;2.90;;;1.98;;
32946;SDS011;54465;51.230;22.504;2023-05-07T08:50:55;2.28;;;1.67;;
32946;SDS011;54465;51.230;22.504;2023-05-07T08:55:57;2.75;;;1.98;;
32946;SDS011;54465;51.230;22.504;2023-05-07T09:01:00;2.97;;;2.15;;
32946;SDS011;54465;51.230;22.504;2023-05-07T09:06:03;2.60;;;1.75;;
32946;SDS011;54465;51.230;22.504;2023-05-07T09:11:04;2.88;;;1.88;;
32946;SDS011;54465;51.230;22.504;2023-05-07T09:16:11;2.53;;;1.95;;
32946;SDS011;54465;51.230;22.504;2023-05-07T09:21:14;3.30;;;1.77;;
32946;SDS011;54465;51.230;22.504;2023-05-07T09:26:16;2.83;;;1.85;;
32946;SDS011;54465;51.230;22.504;2023-05-07T09:31:18;2.20;;;2.00;;
32946;SDS011;54465;51.230;22.504;2023-05-07T09:36:19;2.83;;;1.77;;
32946;SDS011;54465;51.230;22.504;2023-05-07T09:41:20;2.78;;;1.80;;
32946;SDS011;54465;51.230;22.504;2023-05-07T09:46:38;2.03;;;1.40;;
32946;SDS011;54465;51.230;22.504;2023-05-07T09:51:48;2.78;;;1.58;;
32946;SDS011;54465;51.230;22.504;2023-05-07T09:56:52;2.47;;;1.92;;
32946;SDS011;54465;51.230;22.504;2023-05-07T10:01:56;3.75;;;1.88;;
32946;SDS011;54465;51.230;22.504;2023-05-07T10:06:59;3.10;;;2.28;;
32946;SDS011;54465;51.230;22.504;2023-05-07T10:12:00;2.05;;;1.65;;
32946;SDS011;54465;51.230;22.504;2023-05-07T10:17:02;2.65;;;1.15;;
32946;SDS011;54465;51.230;22.504;2023-05-07T10:22:04;1.95;;;1.40;;
32946;SDS011;54465;51.230;22.504;2023-05-07T10:27:10;2.97;;;1.58;;
32946;SDS011;54465;51.230;22.504;2023-05-07T10:32:32;1.52;;;1.38;;
32946;SDS011;54465;51.230;22.504;2023-05-07T10:37:44;2.13;;;1.50;;
32946;SDS011;54465;51.230;22.504;2023-05-07T10:42:55;2.35;;;1.70;;
32946;SDS011;54465;51.230;22.504;2023-05-07T10:48:14;2.95;;;1.50;;
32946;SDS011;54465;51.230;22.504;2023-05-07T11:03:29;2.05;;;1.95;;
32946;SDS011;54465;51.230;22.504;2023-05-07T11:13:53;1.80;;;1.30;;
32946;SDS011;54465;51.230;22.504;2023-05-07T11:19:47;3.53;;;1.70;;
32946;SDS011;54465;51.230;22.504;2023-05-07T11:24:48;3.35;;;1.58;;
32946;SDS011;54465;51.230;22.504;2023-05-07T11:29:48;1.98;;;1.48;;
32946;SDS011;54465;51.230;22.504;2023-05-07T11:35:00;1.80;;;1.50;;
32946;SDS011;54465;51.230;22.504;2023-05-07T11:40:04;1.85;;;1.35;;
32946;SDS011;54465;51.230;22.504;2023-05-07T11:45:06;3.15;;;1.40;;
32946;SDS011;54465;51.230;22.504;2023-05-07T11:50:07;2.13;;;1.42;;
32946;SDS011;54465;51.230;22.504;2023-05-07T11:55:08;3.08;;;1.42;;
32946;SDS011;54465;51.230;22.504;2023-05-07T12:00:09;1.70;;;1.50;;
32946;SDS011;54465;51.230;22.504;2023-05-07T12:05:13;2.17;;;1.45;;
32946;SDS011;54465;51.230;22.504;2023-05-07T12:10:14;1.30;;;1.10;;
32946;SDS011;54465;51.230;22.504;2023-05-07T12:15:15;2.15;;;1.02;;
32946;SDS011;54465;51.230;22.504;2023-05-07T12:20:16;2.30;;;1.45;;
32946;SDS011;54465;51.230;22.504;2023-05-07T12:25:18;1.33;;;1.23;;
32946;SDS011;54465;51.230;22.504;2023-05-07T12:30:20;2.58;;;1.60;;
32946;SDS011;54465;51.230;22.504;2023-05-07T12:35:36;3.15;;;1.45;;
32946;SDS011;54465;51.230;22.504;2023-05-07T12:45:41;2.72;;;1.50;;
32946;SDS011;54465;51.230;22.504;2023-05-07T12:50:41;1.63;;;1.42;;
32946;SDS011;54465;51.230;22.504;2023-05-07T12:55:46;1.50;;;1.15;;
32946;SDS011;54465;51.230;22.504;2023-05-07T13:00:48;1.00;;;0.88;;
32946;SDS011;54465;51.230;22.504;2023-05-07T13:05:50;2.40;;;1.27;;
32946;SDS011;54465;51.230;22.504;2023-05-07T13:10:51;2.75;;;1.15;;
32946;SDS011;54465;51.230;22.504;2023-05-07T13:15:52;2.17;;;1.25;;
32946;SDS011;54465;51.230;22.504;2023-05-07T13:20:53;1.25;;;1.00;;
32946;SDS011;54465;51.230;22.504;2023-05-07T13:25:54;3.33;;;1.30;;
32946;SDS011;54465;51.230;22.504;2023-05-07T13:30:55;1.33;;;1.20;;
32946;SDS011;54465;51.230;22.504;2023-05-07T13:35:56;2.05;;;1.20;;
32946;SDS011;54465;51.230;22.504;2023-05-07T13:40:57;1.25;;;0.82;;
32946;SDS011;54465;51.230;22.504;2023-05-07T13:45:57;1.60;;;1.27;;
32946;SDS011;54465;51.230;22.504;2023-05-07T13:50:58;1.67;;;1.10;;
32946;SDS011;54465;51.230;22.504;2023-05-07T13:55:58;1.42;;;0.98;;
32946;SDS011;54465;51.230;22.504;2023-05-07T14:00:59;3.08;;;1.38;;
32946;SDS011;54465;51.230;22.504;2023-05-07T14:05:59;2.03;;;1.15;;
32946;SDS011;54465;51.230;22.504;2023-05-07T14:11:01;1.15;;;1.00;;
32946;SDS011;54465;51.230;22.504;2023-05-07T14:16:03;1.92;;;1.55;;
32946;SDS011;54465;51.230;22.504;2023-05-07T14:21:04;2.00;;;1.55;;
32946;SDS011;54465;51.230;22.504;2023-05-07T14:26:06;2.00;;;1.52;;
32946;SDS011;54465;51.230;22.504;2023-05-07T14:31:06;2.10;;;1.50;;
32946;SDS011;54465;51.230;22.504;2023-05-07T14:36:07;3.10;;;1.63;;
32946;SDS011;54465;51.230;22.504;2023-05-07T14:41:07;1.63;;;1.40;;
32946;SDS011;54465;51.230;22.504;2023-05-07T14:46:08;1.77;;;1.23;;
32946;SDS011;54465;51.230;22.504;2023-05-07T14:51:08;2.28;;;1.35;;
32946;SDS011;54465;51.230;22.504;2023-05-07T14:56:09;1.50;;;1.10;;
32946;SDS011;54465;51.230;22.504;2023-05-07T15:01:10;1.80;;;1.40;;
32946;SDS011;54465;51.230;22.504;2023-05-07T15:06:10;2.38;;;1.23;;
32946;SDS011;54465;51.230;22.504;2023-05-07T15:11:11;3.10;;;1.70;;
32946;SDS011;54465;51.230;22.504;2023-05-07T15:16:12;2.47;;;1.60;;
32946;SDS011;54465;51.230;22.504;2023-05-07T15:21:13;3.67;;;1.40;;
32946;SDS011;54465;51.230;22.504;2023-05-07T15:26:14;2.05;;;1.75;;
32946;SDS011;54465;51.230;22.504;2023-05-07T15:31:15;4.15;;;1.60;;
32946;SDS011;54465;51.230;22.504;2023-05-07T15:36:16;2.35;;;1.40;;
32946;SDS011;54465;51.230;22.504;2023-05-07T15:41:17;2.50;;;1.27;;
32946;SDS011;54465;51.230;22.504;2023-05-07T15:46:21;1.73;;;1.20;;
32946;SDS011;54465;51.230;22.504;2023-05-07T15:51:24;2.53;;;1.70;;
32946;SDS011;54465;51.230;22.504;2023-05-07T15:56:24;2.25;;;1.40;;
32946;SDS011;54465;51.230;22.504;2023-05-07T16:01:25;2.33;;;1.45;;
32946;SDS011;54465;51.230;22.504;2023-05-07T16:06:25;2.85;;;1.35;;
32946;SDS011;54465;51.230;22.504;2023-05-07T16:11:27;1.98;;;1.70;;
32946;SDS011;54465;51.230;22.504;2023-05-07T16:16:33;2.80;;;1.55;;
32946;SDS011;54465;51.230;22.504;2023-05-07T16:21:35;2.30;;;1.63;;
32946;SDS011;54465;51.230;22.504;2023-05-07T16:26:35;2.53;;;1.10;;
32946;SDS011;54465;51.230;22.504;2023-05-07T16:31:36;2.15;;;1.77;;
32946;SDS011;54465;51.230;22.504;2023-05-07T16:36:36;2.72;;;1.50;;
32946;SDS011;54465;51.230;22.504;2023-05-07T16:41:37;1.83;;;1.17;;
32946;SDS011;54465;51.230;22.504;2023-05-07T16:46:37;2.40;;;1.73;;
32946;SDS011;54465;51.230;22.504;2023-05-07T16:51:38;2.10;;;1.30;;
32946;SDS011;54465;51.230;22.504;2023-05-07T16:56:39;4.05;;;2.25;;
32946;SDS011;54465;51.230;22.504;2023-05-07T17:01:41;4.28;;;1.70;;
32946;SDS011;54465;51.230;22.504;2023-05-07T17:06:41;2.53;;;1.83;;
32946;SDS011;54465;51.230;22.504;2023-05-07T17:11:42;4.38;;;1.83;;
32946;SDS011;54465;51.230;22.504;2023-05-07T17:16:43;2.38;;;1.77;;
32946;SDS011;54465;51.230;22.504;2023-05-07T17:21:43;3.33;;;1.80;;
32946;SDS011;54465;51.230;22.504;2023-05-07T17:26:43;2.20;;;1.65;;
32946;SDS011;54465;51.230;22.504;2023-05-07T17:31:44;2.35;;;1.80;;
32946;SDS011;54465;51.230;22.504;2023-05-07T17:36:45;2.30;;;1.70;;
32946;SDS011;54465;51.230;22.504;2023-05-07T17:41:45;2.75;;;1.70;;
32946;SDS011;54465;51.230;22.504;2023-05-07T17:46:46;2.53;;;1.67;;
32946;SDS011;54465;51.230;22.504;2023-05-07T17:51:46;3.55;;;2.08;;
32946;SDS011;54465;51.230;22.504;2023-05-07T17:56:47;2.20;;;1.63;;
32946;SDS011;54465;51.230;22.504;2023-05-07T18:01:47;3.88;;;2.15;;
32946;SDS011;54465;51.230;22.504;2023-05-07T18:06:48;3.63;;;2.28;;
32946;SDS011;54465;51.230;22.504;2023-05-07T18:11:49;3.35;;;2.10;;
32946;SDS011;54465;51.230;22.504;2023-05-07T18:16:49;2.85;;;2.00;;
32946;SDS011;54465;51.230;22.504;2023-05-07T18:21:50;3.03;;;1.70;;
32946;SDS011;54465;51.230;22.504;2023-05-07T18:26:50;2.53;;;1.98;;
32946;SDS011;54465;51.230;22.504;2023-05-07T18:31:51;3.63;;;1.60;;
32946;SDS011;54465;51.230;22.504;2023-05-07T18:36:51;3.00;;;1.77;;
32946;SDS011;54465;51.230;22.504;2023-05-07T18:41:52;3.65;;;2.10;;
32946;SDS011;54465;51.230;22.504;2023-05-07T18:46:52;3.08;;;2.40;;
32946;SDS011;54465;51.230;22.504;2023-05-07T18:51:53;2.33;;;1.90;;
32946;SDS011;54465;51.230;22.504;2023-05-07T18:56:53;5.72;;;2.00;;
32946;SDS011;54465;51.230;22.504;2023-05-07T19:01:54;4.20;;;2.17;;
32946;SDS011;54465;51.230;22.504;2023-05-07T19:06:54;3.25;;;2.28;;
32946;SDS011;54465;51.230;22.504;2023-05-07T19:11:57;5.10;;;2.40;;
32946;SDS011;54465;51.230;22.504;2023-05-07T19:16:57;3.75;;;1.80;;
32946;SDS011;54465;51.230;22.504;2023-05-07T19:21:58;3.33;;;2.33;;
32946;SDS011;54465;51.230;22.504;2023-05-07T19:26:58;3.17;;;1.70;;
32946;SDS011;54465;51.230;22.504;2023-05-07T19:31:59;4.18;;;2.28;;
32946;SDS011;54465;51.230;22.504;2023-05-07T19:37:01;2.47;;;2.10;;
32946;SDS011;54465;51.230;22.504;2023-05-07T19:42:01;3.92;;;2.63;;
32946;SDS011;54465;51.230;22.504;2023-05-07T19:47:01;4.22;;;2.53;;
32946;SDS011;54465;51.230;22.504;2023-05-07T19:52:03;3.80;;;2.55;;
32946;SDS011;54465;51.230;22.504;2023-05-07T19:57:03;3.95;;;2.25;;
32946;SDS011;54465;51.230;22.504;2023-05-07T20:02:04;3.10;;;2.28;;
32946;SDS011;54465;51.230;22.504;2023-05-07T20:07:04;4.00;;;2.55;;
32946;SDS011;54465;51.230;22.504;2023-05-07T20:12:05;5.78;;;2.92;;
32946;SDS011;54465;51.230;22.504;2023-05-07T20:17:06;3.85;;;2.20;;
32946;SDS011;54465;51.230;22.504;2023-05-07T20:22:06;2.97;;;2.05;;
32946;SDS011;54465;51.230;22.504;2023-05-07T20:27:07;4.07;;;2.67;;
32946;SDS011;54465;51.230;22.504;2023-05-07T20:32:08;4.50;;;2.22;;
32946;SDS011;54465;51.230;22.504;2023-05-07T20:37:08;3.05;;;2.13;;
32946;SDS011;54465;51.230;22.504;2023-05-07T20:42:13;3.60;;;1.98;;
32946;SDS011;54465;51.230;22.504;2023-05-07T20:47:14;2.67;;;1.90;;
32946;SDS011;54465;51.230;22.504;2023-05-07T20:52:14;4.20;;;2.28;;
32946;SDS011;54465;51.230;22.504;2023-05-07T20:57:15;5.40;;;2.55;;
32946;SDS011;54465;51.230;22.504;2023-05-07T21:02:16;4.07;;;2.10;;
32946;SDS011;54465;51.230;22.504;2023-05-07T21:07:16;4.97;;;2.78;;
32946;SDS011;54465;51.230;22.504;2023-05-07T21:12:17;4.65;;;2.72;;
32946;SDS011;54465;51.230;22.504;2023-05-07T21:17:17;4.40;;;2.83;;
32946;SDS011;54465;51.230;22.504;2023-05-07T21:22:18;6.30;;;2.78;;
32946;SDS011;54465;51.230;22.504;2023-05-07T21:27:18;4.60;;;2.67;;
32946;SDS011;54465;51.230;22.504;2023-05-07T21:32:19;4.75;;;2.97;;
32946;SDS011;54465;51.230;22.504;2023-05-07T21:37:19;4.85;;;3.03;;
32946;SDS011;54465;51.230;22.504;2023-05-07T21:42:20;4.40;;;2.40;;
32946;SDS011;54465;51.230;22.504;2023-05-07T21:47:20;5.85;;;2.72;;
32946;SDS011;54465;51.230;22.504;2023-05-07T21:52:21;6.22;;;3.08;;
32946;SDS011;54465;51.230;22.504;2023-05-07T21:57:25;5.28;;;3.90;;
32946;SDS011;54465;51.230;22.504;2023-05-07T22:02:25;5.60;;;3.25;;
32946;SDS011;54465;51.230;22.504;2023-05-07T22:07:26;4.38;;;2.80;;
32946;SDS011;54465;51.230;22.504;2023-05-07T22:12:26;4.00;;;2.72;;
32946;SDS011;54465;51.230;22.504;2023-05-07T22:17:27;3.92;;;2.63;;
32946;SDS011;54465;51.230;22.504;2023-05-07T22:22:27;4.00;;;2.53;;
32946;SDS011;54465;51.230;22.504;2023-05-07T22:27:28;4.43;;;2.67;;
32946;SDS011;54465;51.230;22.504;2023-05-07T22:32:30;3.45;;;2.55;;
32946;SDS011;54465;51.230;22.504;2023-05-07T22:37:30;4.80;;;2.75;;
32946;SDS011;54465;51.230;22.504;2023-05-07T22:42:31;4.13;;;2.13;;
32946;SDS011;54465;51.230;22.504;2023-05-07T22:47:31;3.70;;;2.30;;
32946;SDS011;54465;51.230;22.504;2023-05-07T22:52:32;5.47;;;2.58;;
32946;SDS011;54465;51.230;22.504;2023-05-07T22:57:33;2.38;;;1.80;;
32946;SDS011;54465;51.230;22.504;2023-05-07T23:02:34;2.25;;;2.05;;
32946;SDS011;54465;51.230;22.504;2023-05-07T23:07:34;3.20;;;1.83;;
32946;SDS011;54465;51.230;22.504;2023-05-07T23:12:35;2.65;;;1.90;;
32946;SDS011;54465;51.230;22.504;2023-05-07T23:17:35;2.65;;;1.80;;
32946;SDS011;54465;51.230;22.504;2023-05-07T23:22:36;2.50;;;1.60;;
32946;SDS011;54465;51.230;22.504;2023-05-07T23:27:36;2.33;;;1.58;;
32946;SDS011;54465;51.230;22.504;2023-05-07T23:32:37;3.38;;;1.63;;
32946;SDS011;54465;51.230;22.504;2023-05-07T23:37:37;2.47;;;1.98;;
32946;SDS011;54465;51.230;22.504;2023-05-07T23:42:38;2.38;;;1.95;;
32946;SDS011;54465;51.230;22.504;2023-05-07T23:47:38;3.15;;;2.20;;
32946;SDS011;54465;51.230;22.504;2023-05-07T23:52:39;2.92;;;2.10;;
32946;SDS011;54465;51.230;22.504;2023-05-07T23:57:39;2.13;;;1.70;;
